Time;durP1;ratioP1;P1;durP2;ratioP2;P2;SDS_P1;SDS_P2;PMS_P1;PMS_P2;Temp;Humidity;BMP_temperature;BMP_pressure;BME280_temperature;BME280_humidity;BME280_pressure;Samples;Min_cycle;Max_cycle;Signal;HPM_P1;HPM_P2
2022/10/14 00:01:07;;;;;;;8.90;6.50;;;;;;;;;;104828;1293;36452;-39
2022/10/14 00:03:55;;;;;;;9.70;6.40;;;;;;;;;;104574;1293;317464;-40
2022/10/14 00:06:31;;;;;;;8.40;6.10;;;;;;;;;;104772;1292;37635;-39
2022/10/14 00:09:06;;;;;;;8.70;6.20;;;;;;;;;;104766;1294;37796;-39
2022/10/14 00:11:40;;;;;;;8.60;6.10;;;;;;;;;;104768;1293;36269;-39
2022/10/14 00:14:17;;;;;;;8.10;5.90;;;;;;;;;;104759;1299;36067;-40
2022/10/14 00:16:54;;;;;;;8.00;6.50;;;;;;;;;;104757;1295;37753;-39
2022/10/14 00:19:26;;;;;;;8.30;6.50;;;;;;;;;;104815;1300;37836;-38
2022/10/14 00:21:58;;;;;;;8.60;6.60;;;;;;;;;;104790;1301;38427;-39
2022/10/14 00:24:30;;;;;;;9.00;6.40;;;;;;;;;;104806;1299;36080;-39
2022/10/14 00:27:02;;;;;;;7.60;6.00;;;;;;;;;;104732;1295;37703;-39
2022/10/14 00:29:34;;;;;;;8.70;6.50;;;;;;;;;;104754;1300;37737;-39
2022/10/14 00:32:07;;;;;;;8.40;6.40;;;;;;;;;;104725;1300;37909;-40
2022/10/14 00:34:39;;;;;;;8.90;6.80;;;;;;;;;;104753;1294;37544;-39
2022/10/14 00:37:12;;;;;;;8.50;6.50;;;;;;;;;;104737;1291;37918;-40
2022/10/14 00:39:45;;;;;;;7.80;6.00;;;;;;;;;;104824;1301;35375;-40
2022/10/14 00:42:18;;;;;;;8.40;6.10;;;;;;;;;;104833;1291;35295;-40
2022/10/14 00:45:14;;;;;;;8.80;6.40;;;;;;;;;;104841;1301;36424;-39
2022/10/14 00:47:47;;;;;;;9.00;6.70;;;;;;;;;;104757;1295;38547;-40
2022/10/14 00:50:21;;;;;;;8.90;6.50;;;;;;;;;;104753;1295;38192;-39
2022/10/14 00:52:54;;;;;;;9.00;6.80;;;;;;;;;;104746;1290;37966;-39
2022/10/14 00:55:25;;;;;;;;;;;;;;;;;;104785;1293;37219;-40
2022/10/14 00:57:58;;;;;;;8.90;6.80;;;;;;;;;;104779;1296;35779;-38
2022/10/14 01:00:30;;;;;;;8.90;6.80;;;;;;;;;;104818;1301;37759;-39
2022/10/14 01:03:06;;;;;;;8.80;6.50;;;;;;;;;;104830;1301;37883;-39
2022/10/14 01:05:50;;;;;;;9.10;7.10;;;;;;;;;;104843;1293;37892;-39
2022/10/14 01:08:28;;;;;;;9.40;6.80;;;;;;;;;;104750;1300;36708;-39
2022/10/14 01:11:08;;;;;;;9.60;6.70;;;;;;;;;;104772;1300;37850;-39
2022/10/14 01:13:48;;;;;;;8.20;6.30;;;;;;;;;;104769;1295;37829;-39
2022/10/14 01:16:32;;;;;;;8.80;6.50;;;;;;;;;;104731;1300;37703;-39
2022/10/14 01:19:22;;;;;;;10.00;7.30;;;;;;;;;;104796;1294;37702;-39
2022/10/14 01:22:00;;;;;;;9.80;7.30;;;;;;;;;;104828;1300;35317;-40
2022/10/14 01:24:48;;;;;;;8.80;7.10;;;;;;;;;;104830;1301;37862;-39
2022/10/14 01:27:34;;;;;;;8.50;6.80;;;;;;;;;;104765;1291;35232;-39
2022/10/14 01:30:18;;;;;;;8.80;6.80;;;;;;;;;;104771;1300;37900;-39
2022/10/14 01:33:06;;;;;;;8.40;6.80;;;;;;;;;;104758;1305;36128;-40
2022/10/14 01:35:53;;;;;;;8.30;6.90;;;;;;;;;;104725;1300;35380;-39
2022/10/14 01:38:34;;;;;;;8.80;7.20;;;;;;;;;;104731;1300;38039;-38
2022/10/14 01:41:14;;;;;;;9.30;7.00;;;;;;;;;;104852;1295;34960;-40
2022/10/14 01:43:50;;;;;;;9.90;7.00;;;;;;;;;;104813;1293;35293;-40
2022/10/14 01:46:25;;;;;;;9.00;7.30;;;;;;;;;;104820;1301;37813;-40
2022/10/14 01:49:02;;;;;;;8.50;6.70;;;;;;;;;;104754;1300;37638;-40
2022/10/14 01:51:39;;;;;;;9.00;7.30;;;;;;;;;;104739;1300;34919;-40
2022/10/14 01:54:19;;;;;;;9.00;7.30;;;;;;;;;;104737;1300;35260;-40
2022/10/14 01:56:51;;;;;;;9.50;6.80;;;;;;;;;;104782;1300;37751;-39
2022/10/14 01:59:26;;;;;;;10.00;7.00;;;;;;;;;;104754;1301;36222;-40
2022/10/14 02:01:58;;;;;;;9.00;7.20;;;;;;;;;;104820;1294;34829;-40
2022/10/14 02:04:30;;;;;;;9.60;7.10;;;;;;;;;;104834;1299;35208;-39
2022/10/14 02:07:10;;;;;;;10.00;7.60;;;;;;;;;;104817;1299;36052;-39
2022/10/14 02:09:51;;;;;;;9.80;6.70;;;;;;;;;;104741;1300;37811;-39
2022/10/14 02:12:34;;;;;;;8.80;7.40;;;;;;;;;;104769;1294;35954;-39
2022/10/14 02:15:16;;;;;;;9.70;6.90;;;;;;;;;;104768;1295;35260;-39
2022/10/14 02:18:00;;;;;;;9.20;7.20;;;;;;;;;;104751;1300;37889;-39
2022/10/14 02:20:37;;;;;;;9.20;7.10;;;;;;;;;;104766;1295;42022;-39
2022/10/14 02:23:16;;;;;;;9.20;7.20;;;;;;;;;;104836;1292;35360;-39
2022/10/14 02:25:52;;;;;;;9.50;7.60;;;;;;;;;;104822;1285;37965;-39
2022/10/14 02:28:29;;;;;;;9.90;7.10;;;;;;;;;;104801;1295;37819;-39
2022/10/14 02:31:05;;;;;;;8.80;7.20;;;;;;;;;;104749;1293;41225;-39
2022/10/14 02:33:41;;;;;;;9.20;7.30;;;;;;;;;;104744;1301;35445;-39
2022/10/14 02:36:16;;;;;;;9.50;6.80;;;;;;;;;;104743;1300;38822;-39
2022/10/14 02:38:51;;;;;;;9.80;7.10;;;;;;;;;;104715;1294;37803;-40
2022/10/14 02:41:27;;;;;;;9.50;7.20;;;;;;;;;;104825;1291;36255;-40
2022/10/14 02:43:59;;;;;;;9.50;7.30;;;;;;;;;;104798;1298;36192;-40
2022/10/14 02:46:35;;;;;;;9.50;7.00;;;;;;;;;;104799;1301;34976;-39
2022/10/14 02:49:07;;;;;;;9.50;7.40;;;;;;;;;;104768;1301;35413;-39
2022/10/14 02:51:40;;;;;;;9.60;7.20;;;;;;;;;;104765;1293;37855;-39
2022/10/14 02:54:11;;;;;;;;;;;;;;;;;;104788;1294;36189;-39
2022/10/14 02:56:44;;;;;;;8.40;6.70;;;;;;;;;;104762;1300;34966;-39
2022/10/14 02:59:16;;;;;;;10.40;7.50;;;;;;;;;;104731;1301;37870;-39
2022/10/14 03:01:49;;;;;;;9.30;7.30;;;;;;;;;;104835;1295;37870;-39
2022/10/14 03:04:22;;;;;;;9.20;7.30;;;;;;;;;;104820;1294;37861;-40
2022/10/14 03:06:54;;;;;;;8.90;7.40;;;;;;;;;;104835;1301;36185;-40
2022/10/14 03:09:26;;;;;;;9.50;7.40;;;;;;;;;;104786;1295;36122;-39
2022/10/14 03:11:58;;;;;;;8.90;7.30;;;;;;;;;;104726;1283;38034;-39
2022/10/14 03:14:30;;;;;;;9.40;7.60;;;;;;;;;;104741;1301;37810;-39
2022/10/14 03:17:02;;;;;;;9.30;7.60;;;;;;;;;;104716;1294;37760;-39
2022/10/14 03:19:35;;;;;;;9.00;7.10;;;;;;;;;;104699;1294;37819;-40
2022/10/14 03:22:07;;;;;;;8.60;6.80;;;;;;;;;;104801;1293;42279;-39
2022/10/14 03:24:39;;;;;;;9.40;7.20;;;;;;;;;;104830;1295;35388;-39
2022/10/14 03:27:14;;;;;;;9.70;7.70;;;;;;;;;;104803;1300;35153;-39
2022/10/14 03:29:46;;;;;;;10.00;7.40;;;;;;;;;;104768;1292;37869;-40
2022/10/14 03:32:19;;;;;;;10.00;7.60;;;;;;;;;;104720;1295;36567;-40
2022/10/14 03:34:51;;;;;;;9.30;7.30;;;;;;;;;;104734;1294;36112;-39
2022/10/14 03:37:23;;;;;;;9.70;7.40;;;;;;;;;;104765;1294;35474;-40
2022/10/14 03:39:55;;;;;;;9.20;8.10;;;;;;;;;;104735;1293;35480;-39
2022/10/14 03:42:27;;;;;;;8.90;7.50;;;;;;;;;;104822;1292;37983;-39
2022/10/14 03:45:00;;;;;;;8.60;7.20;;;;;;;;;;104841;1278;36096;-39
2022/10/14 03:47:32;;;;;;;9.60;7.50;;;;;;;;;;104829;1293;37823;-38
2022/10/14 03:50:05;;;;;;;9.80;7.40;;;;;;;;;;104802;1292;35364;-39
2022/10/14 03:52:39;;;;;;;9.50;7.10;;;;;;;;;;104946;1291;41410;-40
2022/10/14 03:55:12;;;;;;;9.20;7.60;;;;;;;;;;104853;1299;38274;-39
2022/10/14 03:57:45;;;;;;;9.20;7.40;;;;;;;;;;104837;1299;36475;-39
2022/10/14 04:00:18;;;;;;;9.40;7.30;;;;;;;;;;104825;1301;36182;-40
2022/10/14 04:02:51;;;;;;;9.60;7.50;;;;;;;;;;104936;1292;42044;-41
2022/10/14 04:05:23;;;;;;;8.40;7.10;;;;;;;;;;104841;1295;37774;-41
2022/10/14 04:07:55;;;;;;;9.30;6.90;;;;;;;;;;104820;1292;37902;-40
2022/10/14 04:10:27;;;;;;;9.70;7.30;;;;;;;;;;104818;1302;37873;-39
2022/10/14 04:13:00;;;;;;;9.80;7.70;;;;;;;;;;104762;1294;36276;-40
2022/10/14 04:15:32;;;;;;;9.70;7.80;;;;;;;;;;104677;1288;36830;-39
2022/10/14 04:18:07;;;;;;;9.70;7.60;;;;;;;;;;104829;1292;35192;-39
2022/10/14 04:20:40;;;;;;;9.10;7.60;;;;;;;;;;104808;1301;37755;-39
2022/10/14 04:23:12;;;;;;;9.70;7.80;;;;;;;;;;104704;1293;37476;-40
2022/10/14 04:25:44;;;;;;;9.50;7.50;;;;;;;;;;104722;1293;35969;-40
2022/10/14 04:28:16;;;;;;;9.40;7.30;;;;;;;;;;104743;1294;37562;-39
2022/10/14 04:30:49;;;;;;;9.80;7.80;;;;;;;;;;104711;1299;35957;-40
2022/10/14 04:33:21;;;;;;;10.00;7.50;;;;;;;;;;104775;1301;37949;-39
2022/10/14 04:35:58;;;;;;;10.10;7.20;;;;;;;;;;104830;1296;36215;-39
2022/10/14 04:38:31;;;;;;;9.60;7.60;;;;;;;;;;104823;1295;36286;-39
2022/10/14 04:41:03;;;;;;;9.90;7.30;;;;;;;;;;104803;1301;37779;-39
2022/10/14 04:43:35;;;;;;;10.00;7.20;;;;;;;;;;104689;1279;37868;-39
2022/10/14 04:46:10;;;;;;;9.30;7.30;;;;;;;;;;104707;1300;38308;-39
2022/10/14 04:48:42;;;;;;;9.40;7.20;;;;;;;;;;104740;1300;37607;-40
2022/10/14 04:51:15;;;;;;;9.90;7.10;;;;;;;;;;104687;1297;36516;-39
2022/10/14 04:53:47;;;;;;;9.30;7.40;;;;;;;;;;104758;1301;35964;-40
2022/10/14 04:56:19;;;;;;;8.70;6.80;;;;;;;;;;104822;1293;36103;-38
2022/10/14 04:58:52;;;;;;;9.60;7.40;;;;;;;;;;104817;1294;35605;-39
2022/10/14 05:01:24;;;;;;;8.70;7.20;;;;;;;;;;104805;1285;37855;-40
2022/10/14 05:03:56;;;;;;;9.30;7.20;;;;;;;;;;104680;1295;36539;-40
2022/10/14 05:06:29;;;;;;;9.60;7.70;;;;;;;;;;104733;1294;37698;-39
2022/10/14 05:09:01;;;;;;;9.10;7.10;;;;;;;;;;104745;1294;36669;-40
2022/10/14 05:11:34;;;;;;;8.30;7.10;;;;;;;;;;104726;1300;33956;-39
2022/10/14 05:14:06;;;;;;;10.10;7.50;;;;;;;;;;104749;1292;38072;-39
2022/10/14 05:16:38;;;;;;;9.10;7.20;;;;;;;;;;104816;1294;36292;-39
2022/10/14 05:19:10;;;;;;;10.30;7.60;;;;;;;;;;104800;1295;36092;-38
2022/10/14 05:21:43;;;;;;;9.60;7.90;;;;;;;;;;104802;1292;35890;-40
2022/10/14 05:24:16;;;;;;;9.80;7.40;;;;;;;;;;104728;1298;37870;-39
2022/10/14 05:26:48;;;;;;;9.80;7.60;;;;;;;;;;104752;1300;38013;-39
2022/10/14 05:29:20;;;;;;;9.40;7.60;;;;;;;;;;104786;1294;37763;-39
2022/10/14 05:31:55;;;;;;;9.50;8.20;;;;;;;;;;104764;1300;36097;-40
2022/10/14 05:34:27;;;;;;;9.60;7.60;;;;;;;;;;104777;1292;36832;-40
2022/10/14 05:36:59;;;;;;;10.10;8.30;;;;;;;;;;104821;1292;37875;-40
2022/10/14 05:39:32;;;;;;;9.50;7.70;;;;;;;;;;104848;1292;36683;-43
2022/10/14 05:42:04;;;;;;;12.10;7.40;;;;;;;;;;104835;1298;36097;-40
2022/10/14 05:44:37;;;;;;;9.70;8.00;;;;;;;;;;104666;1300;36153;-39
2022/10/14 05:47:09;;;;;;;11.90;8.10;;;;;;;;;;104759;1300;37893;-38
2022/10/14 05:49:42;;;;;;;11.10;8.10;;;;;;;;;;104717;1294;37716;-39
2022/10/14 05:52:16;;;;;;;10.80;8.00;;;;;;;;;;104762;1293;38429;-39
2022/10/14 05:54:48;;;;;;;11.10;8.30;;;;;;;;;;104767;1294;37263;-38
2022/10/14 05:57:20;;;;;;;10.90;8.00;;;;;;;;;;104848;1291;35747;-40
2022/10/14 05:59:53;;;;;;;10.40;8.10;;;;;;;;;;104834;1295;36663;-38
2022/10/14 06:02:26;;;;;;;11.60;8.40;;;;;;;;;;104821;1294;35479;-39
2022/10/14 06:04:58;;;;;;;10.10;8.00;;;;;;;;;;104705;1300;37999;-40
2022/10/14 06:07:30;;;;;;;10.80;8.40;;;;;;;;;;104749;1293;37722;-39
2022/10/14 06:10:03;;;;;;;10.80;8.50;;;;;;;;;;104718;1293;37128;-39
2022/10/14 06:12:38;;;;;;;11.10;8.30;;;;;;;;;;104718;1293;36183;-39
2022/10/14 06:15:12;;;;;;;11.10;8.40;;;;;;;;;;104757;1295;35194;-39
2022/10/14 06:17:44;;;;;;;10.60;8.40;;;;;;;;;;104822;1293;37912;-39
2022/10/14 06:20:16;;;;;;;10.30;8.00;;;;;;;;;;104829;1294;38072;-38
2022/10/14 06:22:48;;;;;;;10.60;7.80;;;;;;;;;;104805;1294;37735;-39
2022/10/14 06:25:20;;;;;;;11.10;8.30;;;;;;;;;;104629;1294;36454;-40
2022/10/14 06:27:53;;;;;;;10.80;8.50;;;;;;;;;;104693;1297;35283;-39
2022/10/14 06:30:25;;;;;;;10.70;8.40;;;;;;;;;;104704;1287;37873;-39
2022/10/14 06:32:58;;;;;;;10.80;8.00;;;;;;;;;;104740;1291;36206;-39
2022/10/14 06:35:30;;;;;;;9.90;7.20;;;;;;;;;;104642;1286;36509;-36
2022/10/14 06:38:02;;;;;;;10.60;7.80;;;;;;;;;;104730;1301;37767;-37
2022/10/14 06:40:35;;;;;;;10.70;8.00;;;;;;;;;;104741;1294;38043;-38
2022/10/14 06:43:07;;;;;;;9.70;8.00;;;;;;;;;;104709;1286;38088;-35
2022/10/14 06:45:39;;;;;;;10.10;7.30;;;;;;;;;;104581;1298;37702;-40
2022/10/14 06:48:12;;;;;;;9.60;7.90;;;;;;;;;;104628;1296;35671;-40
2022/10/14 06:50:46;;;;;;;9.90;7.30;;;;;;;;;;104627;1294;37780;-39
2022/10/14 06:53:19;;;;;;;11.70;8.10;;;;;;;;;;104656;1295;35683;-39
2022/10/14 06:55:51;;;;;;;13.10;8.70;;;;;;;;;;104655;1299;37786;-39
2022/10/14 06:58:25;;;;;;;10.00;7.60;;;;;;;;;;104706;1294;37813;-39
2022/10/14 07:01:05;;;;;;;12.40;8.60;;;;;;;;;;104736;1294;35393;-39
2022/10/14 07:03:39;;;;;;;16.50;9.60;;;;;;;;;;104732;1294;36640;-39
2022/10/14 07:06:12;;;;;;;18.80;10.70;;;;;;;;;;104649;1290;39115;-40
2022/10/14 07:08:44;;;;;;;19.00;11.40;;;;;;;;;;104669;1301;37886;-39
2022/10/14 07:11:16;;;;;;;18.80;10.50;;;;;;;;;;104684;1297;37765;-39
2022/10/14 07:13:48;;;;;;;16.50;10.30;;;;;;;;;;104651;1295;36274;-39
2022/10/14 07:16:21;;;;;;;18.60;10.60;;;;;;;;;;104691;1294;36539;-39
2022/10/14 07:18:54;;;;;;;16.40;10.70;;;;;;;;;;104693;1301;35064;-39
2022/10/14 07:21:26;;;;;;;20.10;10.90;;;;;;;;;;104595;1286;36241;-38
2022/10/14 07:23:58;;;;;;;17.90;11.60;;;;;;;;;;104700;1286;38528;-37
2022/10/14 07:26:33;;;;;;;17.90;11.40;;;;;;;;;;104633;1296;36379;-39
2022/10/14 07:29:08;;;;;;;18.70;11.50;;;;;;;;;;104730;1297;35489;-38
2022/10/14 07:31:41;;;;;;;17.30;10.80;;;;;;;;;;104682;1289;37792;-38
2022/10/14 07:34:14;;;;;;;16.40;10.90;;;;;;;;;;104801;1294;37833;-39
2022/10/14 07:36:46;;;;;;;17.20;11.10;;;;;;;;;;104687;1295;37905;-39
2022/10/14 07:39:19;;;;;;;17.20;10.60;;;;;;;;;;104706;1295;36208;-36
2022/10/14 07:41:53;;;;;;;18.10;11.30;;;;;;;;;;104743;1294;37325;-37
2022/10/14 07:44:25;;;;;;;17.80;11.00;;;;;;;;;;104720;1294;36007;-36
2022/10/14 07:47:00;;;;;;;16.70;10.70;;;;;;;;;;104652;1288;37505;-37
2022/10/14 07:49:32;;;;;;;15.80;10.40;;;;;;;;;;104695;1296;38007;-35
2022/10/14 07:52:05;;;;;;;17.70;10.80;;;;;;;;;;104787;1294;36170;-36
2022/10/14 07:54:37;;;;;;;15.90;10.60;;;;;;;;;;104792;1294;35585;-37
2022/10/14 07:57:09;;;;;;;14.60;10.40;;;;;;;;;;104613;1282;37251;-37
2022/10/14 07:59:45;;;;;;;15.50;10.50;;;;;;;;;;104651;1295;37987;-36
2022/10/14 08:02:17;;;;;;;14.90;10.50;;;;;;;;;;104659;1288;36271;-36
2022/10/14 08:04:54;;;;;;;14.90;10.10;;;;;;;;;;104476;1297;230828;-35
2022/10/14 08:07:28;;;;;;;15.00;10.60;;;;;;;;;;104680;1294;37846;-36
2022/10/14 08:10:00;;;;;;;16.90;11.10;;;;;;;;;;104753;1294;38577;-37
2022/10/14 08:12:33;;;;;;;14.80;10.70;;;;;;;;;;104675;1295;36408;-38
2022/10/14 08:15:07;;;;;;;17.50;10.50;;;;;;;;;;104815;1293;36744;-39
2022/10/14 08:17:39;;;;;;;13.50;10.10;;;;;;;;;;104686;1295;36293;-37
2022/10/14 08:20:13;;;;;;;14.90;10.30;;;;;;;;;;104694;1298;35070;-37
2022/10/14 08:22:45;;;;;;;14.90;10.00;;;;;;;;;;104718;1298;37644;-38
2022/10/14 08:25:18;;;;;;;13.90;11.20;;;;;;;;;;104737;1294;35236;-38
2022/10/14 08:27:53;;;;;;;13.60;10.40;;;;;;;;;;104752;1294;36551;-38
2022/10/14 08:30:26;;;;;;;14.10;10.20;;;;;;;;;;104717;1295;36317;-37
2022/10/14 08:32:59;;;;;;;15.10;10.70;;;;;;;;;;104741;1294;38074;-37
2022/10/14 08:35:31;;;;;;;15.30;11.00;;;;;;;;;;104682;1301;38312;-38
2022/10/14 08:38:07;;;;;;;14.00;10.40;;;;;;;;;;104545;1297;37925;-38
2022/10/14 08:41:07;;;;;;;15.80;10.70;;;;;;;;;;104556;1288;37825;-38
2022/10/14 08:43:48;;;;;;;14.50;10.90;;;;;;;;;;104526;1301;37909;-40
2022/10/14 08:46:38;;;;;;;13.90;10.80;;;;;;;;;;104567;1288;35241;-41
2022/10/14 08:49:20;;;;;;;13.60;10.50;;;;;;;;;;104726;1294;37967;-39
2022/10/14 08:52:01;;;;;;;14.80;10.50;;;;;;;;;;104742;1295;37749;-38
2022/10/14 08:54:40;;;;;;;13.30;10.90;;;;;;;;;;104719;1295;36250;-38
2022/10/14 08:57:22;;;;;;;16.00;11.40;;;;;;;;;;104576;1289;37822;-38
2022/10/14 08:59:57;;;;;;;15.30;11.60;;;;;;;;;;104684;1295;35169;-39
2022/10/14 09:02:42;;;;;;;14.70;11.40;;;;;;;;;;104712;1294;35069;-39
2022/10/14 09:05:20;;;;;;;15.30;11.60;;;;;;;;;;104734;1292;37947;-39
2022/10/14 09:07:55;;;;;;;14.30;10.90;;;;;;;;;;104707;1293;38016;-38
2022/10/14 09:10:33;;;;;;;15.10;11.20;;;;;;;;;;104740;1297;38381;-37
2022/10/14 09:13:15;;;;;;;12.50;10.60;;;;;;;;;;104710;1288;36311;-36
2022/10/14 09:15:52;;;;;;;13.70;11.10;;;;;;;;;;104707;1287;36256;-36
2022/10/14 09:18:37;;;;;;;14.40;11.40;;;;;;;;;;104730;1286;37886;-36
2022/10/14 09:21:28;;;;;;;13.50;10.90;;;;;;;;;;104808;1294;37482;-37
2022/10/14 09:24:16;;;;;;;12.30;10.70;;;;;;;;;;104723;1287;37902;-37
2022/10/14 09:26:55;;;;;;;12.30;10.40;;;;;;;;;;104713;1286;36318;-37
2022/10/14 09:29:31;;;;;;;14.30;11.40;;;;;;;;;;104667;1295;39930;-36
2022/10/14 09:32:07;;;;;;;12.50;10.60;;;;;;;;;;104836;1294;37256;-37
2022/10/14 09:34:44;;;;;;;13.50;10.90;;;;;;;;;;104821;1293;38041;-36
2022/10/14 09:37:27;;;;;;;12.60;10.80;;;;;;;;;;104785;1294;36366;-38
2022/10/14 09:40:06;;;;;;;13.30;10.70;;;;;;;;;;104713;1286;38750;-40
2022/10/14 09:42:50;;;;;;;12.90;10.80;;;;;;;;;;104670;1294;36251;-37
2022/10/14 09:45:23;;;;;;;;;;;;;;;;;;104747;1294;37815;-36
2022/10/14 09:48:06;;;;;;;13.50;10.90;;;;;;;;;;104673;1295;35606;-36
2022/10/14 09:50:43;;;;;;;14.20;11.00;;;;;;;;;;104705;1301;35521;-37
2022/10/14 09:53:27;;;;;;;12.80;11.20;;;;;;;;;;104709;1291;38054;-36
2022/10/14 09:56:02;;;;;;;14.60;12.00;;;;;;;;;;104661;1296;37293;-38
2022/10/14 09:58:42;;;;;;;12.70;11.40;;;;;;;;;;104679;1288;35643;-35
2022/10/14 10:01:21;;;;;;;13.30;11.40;;;;;;;;;;104732;1294;37850;-38
2022/10/14 10:03:54;;;;;;;13.80;10.70;;;;;;;;;;104724;1294;37768;-35
2022/10/14 10:06:28;;;;;;;12.60;10.70;;;;;;;;;;104703;1294;36266;-37
2022/10/14 10:09:01;;;;;;;13.40;10.70;;;;;;;;;;104665;1294;37475;-36
2022/10/14 10:11:36;;;;;;;13.00;10.80;;;;;;;;;;104674;1294;36281;-37
2022/10/14 10:14:31;;;;;;;12.50;10.40;;;;;;;;;;104682;1291;37862;-37
2022/10/14 10:17:20;;;;;;;11.90;10.60;;;;;;;;;;104677;1296;37885;-38
2022/10/14 10:20:08;;;;;;;11.70;10.40;;;;;;;;;;104662;1295;37940;-37
2022/10/14 10:22:40;;;;;;;12.00;10.20;;;;;;;;;;104695;1295;36154;-37
2022/10/14 10:25:28;;;;;;;13.20;10.80;;;;;;;;;;104745;1296;36334;-37
2022/10/14 10:28:05;;;;;;;11.80;10.60;;;;;;;;;;104730;1288;35432;-37
2022/10/14 10:30:43;;;;;;;12.80;10.90;;;;;;;;;;104734;1294;37956;-37
2022/10/14 10:33:32;;;;;;;12.00;10.40;;;;;;;;;;104798;1295;37966;-38
2022/10/14 10:36:20;;;;;;;13.60;11.20;;;;;;;;;;104799;1292;37580;-37
2022/10/14 10:39:04;;;;;;;12.20;10.10;;;;;;;;;;104787;1295;38023;-38
2022/10/14 10:41:47;;;;;;;;;;;;;;;;;;104732;1294;36435;-36
2022/10/14 10:44:42;;;;;;;12.20;10.80;;;;;;;;;;104720;1295;35604;-38
2022/10/14 10:47:32;;;;;;;12.80;10.80;;;;;;;;;;104731;1295;36218;-37
2022/10/14 10:50:27;;;;;;;13.40;10.90;;;;;;;;;;104627;1301;35284;-37
2022/10/14 10:53:40;;;;;;;11.90;10.70;;;;;;;;;;104677;1295;38422;-37
2022/10/14 10:56:33;;;;;;;11.80;10.50;;;;;;;;;;104340;1292;35032;-37
2022/10/14 10:59:36;;;;;;;12.50;10.70;;;;;;;;;;104362;1300;36407;-37
2022/10/14 11:02:48;;;;;;;12.00;10.80;;;;;;;;;;104696;1294;35663;-37
2022/10/14 11:05:36;;;;;;;12.00;10.30;;;;;;;;;;104773;1295;37396;-37
2022/10/14 11:14:35;;;;;;;11.60;10.30;;;;;;;;;;104722;1288;36232;-37
2022/10/14 11:17:15;;;;;;;13.20;10.30;;;;;;;;;;104639;1297;36472;-37
2022/10/14 11:19:57;;;;;;;12.30;10.40;;;;;;;;;;104717;1291;36365;-35
2022/10/14 11:22:58;;;;;;;12.30;10.40;;;;;;;;;;104667;1288;42376;-37
2022/10/14 11:25:48;;;;;;;12.00;10.80;;;;;;;;;;104734;1288;36766;-35
2022/10/14 11:28:29;;;;;;;12.30;10.20;;;;;;;;;;104698;1294;38086;-37
2022/10/14 11:31:08;;;;;;;12.90;10.30;;;;;;;;;;104654;1294;36903;-36
2022/10/14 11:34:08;;;;;;;14.60;10.00;;;;;;;;;;104731;1290;37224;-37
2022/10/14 11:36:53;;;;;;;13.10;10.80;;;;;;;;;;104690;1288;37925;-37
2022/10/14 11:39:40;;;;;;;12.90;10.80;;;;;;;;;;104744;1298;37993;-35
2022/10/14 11:42:31;;;;;;;13.60;11.20;;;;;;;;;;104708;1294;37832;-39
2022/10/14 11:45:36;;;;;;;13.70;10.70;;;;;;;;;;104723;1294;36455;-37
2022/10/14 11:48:25;;;;;;;12.10;9.80;;;;;;;;;;104749;1284;36165;-37
2022/10/14 11:51:10;;;;;;;12.20;10.60;;;;;;;;;;104660;1289;38320;-36
2022/10/14 11:53:57;;;;;;;12.10;10.80;;;;;;;;;;104867;1295;36215;-35
2022/10/14 11:56:40;;;;;;;13.20;10.80;;;;;;;;;;104819;1298;37848;-36
2022/10/14 11:59:28;;;;;;;12.10;10.40;;;;;;;;;;104817;1294;35499;-37
2022/10/14 12:02:14;;;;;;;14.90;11.40;;;;;;;;;;104758;1288;36207;-37
2022/10/14 12:04:56;;;;;;;12.60;11.20;;;;;;;;;;104742;1287;37976;-37
2022/10/14 12:07:38;;;;;;;13.30;11.90;;;;;;;;;;104725;1284;36586;-35
2022/10/14 12:10:24;;;;;;;12.80;10.90;;;;;;;;;;104760;1295;37999;-35
2022/10/14 12:12:58;;;;;;;11.70;10.30;;;;;;;;;;104761;1281;35942;-34
2022/10/14 12:15:31;;;;;;;11.50;10.20;;;;;;;;;;104802;1287;36262;-34
2022/10/14 12:18:04;;;;;;;13.30;10.80;;;;;;;;;;104824;1294;36171;-35
2022/10/14 12:20:43;;;;;;;13.00;11.00;;;;;;;;;;104829;1298;36288;-34
2022/10/14 12:23:27;;;;;;;13.30;10.30;;;;;;;;;;104708;1292;38033;-34
2022/10/14 12:26:06;;;;;;;11.80;10.50;;;;;;;;;;104736;1291;36317;-34
2022/10/14 12:28:39;;;;;;;12.80;11.30;;;;;;;;;;104703;1294;38353;-33
2022/10/14 12:31:37;;;;;;;;;;;;;;;;;;104699;1294;37933;-33
2022/10/14 12:34:38;;;;;;;11.70;10.40;;;;;;;;;;104708;1288;37167;-33
2022/10/14 12:37:53;;;;;;;12.60;10.80;;;;;;;;;;104709;1294;35468;-33
2022/10/14 12:40:35;;;;;;;11.50;10.30;;;;;;;;;;104735;1295;37257;-38
2022/10/14 12:43:29;;;;;;;11.50;10.30;;;;;;;;;;104653;1302;38670;-37
2022/10/14 12:46:10;;;;;;;;;;;;;;;;;;104703;1294;37998;-36
2022/10/14 12:48:50;;;;;;;12.30;10.50;;;;;;;;;;104676;1286;37251;-36
2022/10/14 12:51:26;;;;;;;11.50;10.30;;;;;;;;;;104703;1294;37890;-38
2022/10/14 12:54:08;;;;;;;11.50;10.10;;;;;;;;;;104660;1277;37975;-35
2022/10/14 12:56:53;;;;;;;10.80;9.60;;;;;;;;;;104744;1294;35515;-34
2022/10/14 12:59:30;;;;;;;11.20;10.10;;;;;;;;;;104712;1302;36901;-34
2022/10/14 13:02:12;;;;;;;11.70;10.20;;;;;;;;;;104723;1294;37910;-34
2022/10/14 13:04:50;;;;;;;12.80;10.30;;;;;;;;;;104631;1288;35752;-34
2022/10/14 13:07:47;;;;;;;14.70;11.20;;;;;;;;;;104673;1296;35329;-34
2022/10/14 13:11:10;;;;;;;11.40;9.80;;;;;;;;;;104685;1295;38032;-34
2022/10/14 13:14:01;;;;;;;11.30;10.20;;;;;;;;;;104668;1293;37889;-33
2022/10/14 13:17:01;;;;;;;11.70;10.50;;;;;;;;;;104740;1286;36367;-34
2022/10/14 13:19:47;;;;;;;11.30;9.90;;;;;;;;;;104781;1300;37081;-34
2022/10/14 13:22:40;;;;;;;12.20;9.90;;;;;;;;;;104798;1294;37744;-34
2022/10/14 13:25:29;;;;;;;11.00;9.90;;;;;;;;;;104857;1286;42576;-35
2022/10/14 13:28:24;;;;;;;11.90;10.60;;;;;;;;;;104733;1276;36237;-35
2022/10/14 13:31:08;;;;;;;12.20;10.40;;;;;;;;;;104722;1292;36194;-34
2022/10/14 13:33:47;;;;;;;12.30;10.70;;;;;;;;;;104728;1294;37968;-33
2022/10/14 13:36:24;;;;;;;11.40;9.80;;;;;;;;;;104825;1295;37807;-34
2022/10/14 13:39:00;;;;;;;11.00;9.80;;;;;;;;;;104807;1294;37318;-34
2022/10/14 13:41:33;;;;;;;11.30;10.30;;;;;;;;;;104698;1297;35627;-33
2022/10/14 13:44:05;;;;;;;12.40;10.30;;;;;;;;;;104757;1294;38135;-33
2022/10/14 13:46:42;;;;;;;11.60;10.30;;;;;;;;;;104763;1294;37898;-33
2022/10/14 13:49:20;;;;;;;10.60;9.60;;;;;;;;;;104780;1293;36937;-34
2022/10/14 13:51:55;;;;;;;10.70;9.20;;;;;;;;;;104743;1291;35226;-34
2022/10/14 13:54:29;;;;;;;11.30;9.70;;;;;;;;;;104743;1292;37895;-34
2022/10/14 13:57:09;;;;;;;10.70;9.60;;;;;;;;;;104831;1292;37639;-34
2022/10/14 13:59:44;;;;;;;11.40;9.60;;;;;;;;;;104830;1291;36169;-34
2022/10/14 14:02:23;;;;;;;11.40;9.60;;;;;;;;;;104831;1295;35147;-34
2022/10/14 14:04:58;;;;;;;11.50;9.90;;;;;;;;;;104736;1292;37925;-34
2022/10/14 14:07:35;;;;;;;10.60;9.40;;;;;;;;;;104743;1294;37940;-34
2022/10/14 14:10:11;;;;;;;9.50;8.60;;;;;;;;;;104766;1286;37925;-34
2022/10/14 14:12:46;;;;;;;11.40;10.20;;;;;;;;;;104761;1294;36141;-36
2022/10/14 14:15:26;;;;;;;12.00;10.00;;;;;;;;;;104793;1293;37456;-36
2022/10/14 14:17:58;;;;;;;10.20;9.10;;;;;;;;;;104816;1291;37953;-35
2022/10/14 14:20:32;;;;;;;11.00;9.80;;;;;;;;;;104826;1292;36377;-35
2022/10/14 14:23:06;;;;;;;11.30;9.80;;;;;;;;;;104856;1293;37344;-36
2022/10/14 14:25:39;;;;;;;10.60;9.50;;;;;;;;;;104748;1294;36180;-35
2022/10/14 14:28:16;;;;;;;10.60;9.10;;;;;;;;;;104771;1290;37823;-36
2022/10/14 14:30:56;;;;;;;10.30;9.10;;;;;;;;;;104755;1301;37859;-36
2022/10/14 14:33:35;;;;;;;10.00;8.90;;;;;;;;;;104744;1294;36085;-35
2022/10/14 14:36:16;;;;;;;10.60;9.50;;;;;;;;;;104781;1294;35580;-35
2022/10/14 14:38:57;;;;;;;10.70;9.10;;;;;;;;;;104790;1299;37925;-36
2022/10/14 14:41:32;;;;;;;10.90;9.80;;;;;;;;;;104814;1292;37826;-36
2022/10/14 14:44:08;;;;;;;10.80;9.60;;;;;;;;;;104843;1299;36113;-35
2022/10/14 14:46:43;;;;;;;10.10;9.10;;;;;;;;;;104715;1293;35715;-35
2022/10/14 14:49:22;;;;;;;10.50;9.40;;;;;;;;;;104751;1294;36642;-35
2022/10/14 14:51:55;;;;;;;10.50;9.40;;;;;;;;;;104778;1293;36302;-35
2022/10/14 14:54:27;;;;;;;;;;;;;;;;;;104796;1293;37922;-36
2022/10/14 14:57:06;;;;;;;10.90;9.40;;;;;;;;;;104809;1291;35874;-35
2022/10/14 14:59:42;;;;;;;11.20;10.00;;;;;;;;;;104855;1292;36697;-36
2022/10/14 15:02:18;;;;;;;10.40;9.30;;;;;;;;;;104798;1294;35158;-36
2022/10/14 15:05:03;;;;;;;10.60;9.50;;;;;;;;;;104797;1294;36570;-36
2022/10/14 15:07:38;;;;;;;11.50;10.30;;;;;;;;;;104765;1300;38010;-36
2022/10/14 15:10:22;;;;;;;10.90;9.60;;;;;;;;;;104765;1287;38160;-36
2022/10/14 15:12:59;;;;;;;10.30;9.30;;;;;;;;;;104793;1292;37682;-35
2022/10/14 15:15:33;;;;;;;10.50;9.10;;;;;;;;;;104772;1293;35214;-36
2022/10/14 15:18:25;;;;;;;11.00;9.80;;;;;;;;;;104869;1295;35130;-36
2022/10/14 15:21:14;;;;;;;10.00;9.00;;;;;;;;;;104930;1292;37918;-36
2022/10/14 15:24:02;;;;;;;10.80;9.70;;;;;;;;;;104831;1295;36026;-35
2022/10/14 15:26:37;;;;;;;11.20;10.10;;;;;;;;;;104734;1295;38128;-35